MDT,Max TemperatureF,Mean TemperatureF,Min TemperatureF,Max Dew PointF,MeanDew PointF,Min DewpointF,Max Humidity, Mean Humidity, Min Humidity, Max Sea Level PressureIn, Mean Sea Level PressureIn, Min Sea Level PressureIn, Max VisibilityMiles, Mean VisibilityMiles, Min VisibilityMiles, Max Wind SpeedMPH, Mean Wind SpeedMPH, Max Gust SpeedMPH,PrecipitationIn, CloudCover, Events, WindDirDegrees
2013-10-1,78,62,48,32,27,21,37,27,18,29.93,29.86,29.80,10,10,10,20,14,24,0.00,0,,307
2013-10-2,73,59,46,27,24,16,42,28,12,29.96,29.89,29.85,10,10,10,23,13,29,0.00,0,,279
2013-10-3,71,56,44,32,27,22,55,34,17,29.86,29.79,29.71,10,10,10,24,15,33,0.00,0,,257
2013-10-4,61,49,39,30,20,5,50,31,18,30.03,29.85,29.68,10,10,10,34,20,45,0.00,0,,290
2013-10-5,55,42,28,17,14,6,58,33,17,30.25,30.15,30.03,10,10,10,21,13,30,0.00,1,,307
2013-10-6,69,50,32,20,14,8,54,29,11,30.28,30.21,30.16,10,10,10,13,9,,0.00,0,,296
2013-10-7,70,56,42,21,16,8,39,23,14,30.22,30.11,30.02,10,10,10,16,7,22,0.00,0,,243
2013-10-8,71,57,43,29,24,21,43,30,16,30.01,29.90,29.81,10,10,10,25,15,34,0.00,0,,241
2013-10-9,69,56,44,33,29,22,52,37,17,29.88,29.83,29.79,10,10,10,18,13,30,0.00,0,,214
2013-10-10,66,50,35,43,34,26,87,54,30,29.93,29.77,29.64,10,10,5,38,17,51,0.04,3,Rain,230
2013-10-11,55,42,28,29,26,24,82,57,33,30.03,29.94,29.83,10,10,10,30,18,38,0.00,0,,292
2013-10-12,60,46,34,34,31,26,79,59,35,30.17,30.10,30.04,10,10,10,14,9,,0.00,0,,82
2013-10-13,64,50,37,49,41,32,89,72,52,30.19,30.08,29.96,10,10,10,24,13,31,0.00,3,,118
2013-10-14,62,52,39,49,30,11,96,50,22,30.13,29.94,29.85,10,10,9,34,19,45,0.00,1,,267
2013-10-15,51,40,30,32,24,12,89,51,26,30.16,30.05,29.97,10,10,10,23,10,32,0.00,3,,108
2013-10-16,51,40,30,36,29,14,100,80,35,30.19,30.12,30.02,10,6,0,23,14,31,0.22,6,Fog-Snow,111
2013-10-17,57,45,28,50,18,7,67,42,14,30.10,30.02,29.92,10,10,10,23,13,29,0.00,0,,285
2013-10-18,57,42,27,30,20,10,89,50,17,30.20,30.02,29.88,10,10,10,25,14,34,0.00,0,,301
2013-10-19,59,45,24,50,20,13,88,49,18,30.22,30.11,29.99,10,10,10,31,12,37,0.00,0,,286
2013-10-20,63,49,36,29,16,10,65,30,14,30.08,29.90,29.79,10,10,10,30,18,41,0.00,0,,303
2013-10-21,55,42,28,29,27,24,89,61,31,30.21,30.11,29.98,10,10,10,13,9,,0.00,0,,152
2013-10-22,64,48,32,27,21,15,70,40,16,30.25,30.17,30.11,10,10,10,15,10,18,0.00,0,,271
2013-10-23,68,52,37,24,20,14,45,31,16,30.17,30.09,30.01,10,10,10,16,10,23,0.00,0,,275
2013-10-24,66,54,44,29,25,19,44,34,20,30.18,30.11,30.05,10,10,10,15,7,17,0.00,1,,122
2013-10-25,55,46,37,45,39,30,93,78,50,30.30,30.20,30.11,10,10,5,23,8,31,0.25,6,Rain,161
2013-10-26,57,47,39,39,33,27,93,65,33,30.29,30.22,30.14,10,10,10,18,10,26,0.00,3,,42
2013-10-27,62,48,34,36,31,25,82,58,25,30.20,30.04,29.86,10,10,10,21,11,29,0.00,0,,254
2013-10-28,63,52,41,36,28,20,73,44,21,29.90,29.85,29.78,10,10,10,24,14,29,0.00,0,,227
2013-10-29,61,53,46,24,21,19,40,32,20,29.94,29.86,29.82,10,10,10,24,18,33,0.00,0,,227
2013-10-30,55,44,30,34,27,19,93,58,32,29.96,29.84,29.71,10,10,10,28,19,36,0.00,3,Rain,270
2013-10-31,48,39,30,26,23,19,82,57,34,30.04,29.94,29.85,10,10,10,39,27,50,0.00,0,,294